Time;durP1;ratioP1;P1;durP2;ratioP2;P2;SDS_P1;SDS_P2;PMS_P1;PMS_P2;Temp;Humidity;BMP_temperature;BMP_pressure;BME280_temperature;BME280_humidity;BME280_pressure;Samples;Min_cycle;Max_cycle;Signal;HPM_P1;HPM_P2
2021/11/09 00:02:16;;;;;;;26.52;10.63;;;;;;;7.78;75.48;100879.94;5092082;28;20445;-62
2021/11/09 00:04:51;;;;;;;27.17;11.20;;;;;;;7.77;75.35;100873.03;5092336;28;20126;-64
2021/11/09 00:07:36;;;;;;;26.02;11.18;;;;;;;7.79;75.46;100876.53;5109576;28;20436;-63
2021/11/09 00:10:08;;;;;;;27.50;11.05;;;;;;;7.78;75.44;100862.75;5109101;28;20040;-63
2021/11/09 00:12:51;;;;;;;29.67;12.98;;;;;;;7.76;75.34;100859.25;5099813;28;20032;-63
2021/11/09 00:15:24;;;;;;;33.30;13.57;;;;;;;7.78;75.42;100864.47;5096272;28;20046;-63
2021/11/09 00:17:58;;;;;;;23.33;9.77;;;;;;;7.76;75.58;100858.34;5096626;28;20031;-62
2021/11/09 00:20:28;;;;;;;25.65;11.05;;;;;;;7.78;75.55;100861.88;5095008;28;20093;-63
2021/11/09 00:23:00;;;;;;;23.95;10.55;;;;;;;7.78;75.52;100864.47;5077822;28;20530;-62
2021/11/09 00:25:26;;;;;;;23.85;11.00;;;;;;;7.79;75.37;100853.31;5096207;28;20043;-63
2021/11/09 00:27:55;;;;;;;30.15;11.85;;;;;;;7.80;75.23;100860.25;5096215;28;20032;-63
2021/11/09 00:30:32;;;;;;;23.60;10.43;;;;;;;7.77;75.19;100842.94;5078053;28;20107;-63
2021/11/09 00:33:06;;;;;;;28.50;11.52;;;;;;;7.77;75.38;100845.53;5078316;28;20062;-62
2021/11/09 00:35:35;;;;;;;24.40;9.40;;;;;;;7.78;75.24;100846.41;5094892;28;20047;-62
2021/11/09 00:38:06;;;;;;;21.77;10.70;;;;;;;7.76;75.61;100858.34;5095091;28;20043;-63
2021/11/09 00:40:36;;;;;;;30.00;10.35;;;;;;;7.76;75.18;100840.28;5077719;28;20036;-62
2021/11/09 00:43:06;;;;;;;24.80;10.70;;;;;;;7.75;75.36;100848.84;5077655;28;20039;-63
2021/11/09 00:45:35;;;;;;;25.88;11.63;;;;;;;7.73;75.31;100837.56;5095800;28;20040;-63
2021/11/09 00:48:04;;;;;;;24.30;9.60;;;;;;;7.73;75.23;100842.75;5077577;28;20119;-62
2021/11/09 00:50:31;;;;;;;27.73;11.10;;;;;;;7.72;75.63;100844.44;5094510;28;20032;-62
2021/11/09 00:53:00;;;;;;;24.17;10.23;;;;;;;7.72;75.43;100844.44;5095468;28;20036;-62
2021/11/09 00:55:30;;;;;;;22.63;9.88;;;;;;;7.71;75.09;100834.06;5095887;28;20047;-63
2021/11/09 00:58:00;;;;;;;23.20;10.45;;;;;;;7.72;75.13;100840.97;5095991;28;20047;-63
2021/11/09 01:00:33;;;;;;;24.40;9.65;;;;;;;7.70;75.19;100840.94;5077080;28;20560;-63
2021/11/09 01:03:04;;;;;;;26.33;9.50;;;;;;;7.69;75.38;100834.00;5095635;28;20039;-63
2021/11/09 01:05:34;;;;;;;28.65;9.50;;;;;;;7.67;75.37;100838.22;5095501;28;20032;-63
2021/11/09 01:08:05;;;;;;;26.35;10.30;;;;;;;7.66;75.10;100838.16;5077302;28;20039;-63
2021/11/09 01:10:36;;;;;;;25.88;10.43;;;;;;;7.63;75.30;100828.59;5094318;28;20101;-63
2021/11/09 01:13:08;;;;;;;26.67;9.57;;;;;;;7.62;75.18;100830.28;5095517;28;20122;-63
2021/11/09 01:15:43;;;;;;;22.83;9.55;;;;;;;7.59;75.37;100827.59;5093701;28;20067;-62
2021/11/09 01:18:14;;;;;;;31.38;10.43;;;;;;;7.56;75.43;100824.88;5076521;28;20487;-63
2021/11/09 01:20:42;;;;;;;27.85;10.70;;;;;;;7.56;75.09;100822.28;5095105;28;20085;-63
2021/11/09 01:23:15;;;;;;;26.15;9.43;;;;;;;7.55;74.93;100829.97;5092753;28;20047;-62
2021/11/09 01:25:42;;;;;;;24.30;10.45;;;;;;;7.58;75.33;100830.13;5095135;28;20426;-62
2021/11/09 01:28:11;;;;;;;32.40;9.15;;;;;;;7.53;75.31;100822.19;5076984;28;20028;-63
2021/11/09 01:30:40;;;;;;;21.63;9.90;;;;;;;7.54;75.13;100823.06;5076510;28;20132;-63
2021/11/09 01:33:09;;;;;;;23.20;8.55;;;;;;;7.52;75.42;100820.44;5093775;28;20040;-63
2021/11/09 01:35:37;;;;;;;22.77;9.30;;;;;;;7.52;75.10;100814.38;5094767;28;20040;-63
2021/11/09 01:38:04;;;;;;;28.67;9.68;;;;;;;7.52;75.34;100825.59;5076841;28;20078;-62
2021/11/09 01:40:34;;;;;;;20.35;8.70;;;;;;;7.53;75.00;100824.78;5076136;28;20055;-63
2021/11/09 01:43:07;;;;;;;28.17;9.38;;;;;;;7.53;75.09;100829.94;5076459;28;20036;-63
2021/11/09 01:45:36;;;;;;;25.17;8.38;;;;;;;7.52;75.22;100833.34;5095004;28;20039;-63
2021/11/09 01:48:07;;;;;;;25.80;10.35;;;;;;;7.54;74.95;100825.63;5076336;28;20047;-62
2021/11/09 01:50:40;;;;;;;21.73;9.75;;;;;;;7.53;74.92;100836.78;5076874;28;20121;-62
2021/11/09 01:53:09;;;;;;;17.30;8.27;;;;;;;7.52;74.82;100824.69;5094697;28;20097;-62
2021/11/09 01:55:38;;;;;;;27.60;9.93;;;;;;;7.52;75.05;100825.59;5094471;28;20028;-63
2021/11/09 01:58:10;;;;;;;26.77;8.77;;;;;;;7.52;74.91;100832.44;5076279;28;20119;-62
2021/11/09 02:00:44;;;;;;;32.33;9.07;;;;;;;7.53;75.23;100834.19;5094490;28;20047;-63
2021/11/09 02:03:10;;;;;;;21.90;9.63;;;;;;;7.51;75.16;100835.81;5094396;28;20036;-62
2021/11/09 02:05:39;;;;;;;25.00;8.10;;;;;;;7.50;75.08;100832.38;5094502;28;20034;-62
2021/11/09 02:08:07;;;;;;;21.38;9.52;;;;;;;7.51;75.25;100841.00;5092784;28;20040;-63
2021/11/09 02:10:36;;;;;;;18.50;7.82;;;;;;;7.49;75.21;100846.09;5093072;28;20149;-62
2021/11/09 02:13:05;;;;;;;26.30;8.30;;;;;;;7.49;75.14;100834.88;5110154;28;20044;-62
2021/11/09 02:15:35;;;;;;;25.65;10.18;;;;;;;7.47;75.48;100838.28;5093771;28;20491;-62
2021/11/09 02:18:06;;;;;;;19.20;8.38;;;;;;;7.47;74.96;100834.81;5093212;28;20036;-62
2021/11/09 02:20:37;;;;;;;22.13;8.93;;;;;;;7.48;75.10;100839.16;5092699;28;20073;-62
2021/11/09 02:23:03;;;;;;;25.83;9.68;;;;;;;7.49;75.13;100832.28;5110355;28;20035;-63
2021/11/09 02:25:35;;;;;;;29.85;10.23;;;;;;;7.49;75.11;100829.72;5093062;28;20165;-63
2021/11/09 02:28:06;;;;;;;27.25;9.10;;;;;;;7.50;74.88;100836.63;5094442;28;20033;-63
2021/11/09 02:30:37;;;;;;;21.60;8.73;;;;;;;7.48;75.49;100844.31;5076036;28;20497;-63
2021/11/09 02:33:06;;;;;;;23.83;10.02;;;;;;;7.49;74.85;100855.50;5092646;28;20047;-63
2021/11/09 02:35:33;;;;;;;26.10;8.30;;;;;;;7.50;75.18;100857.28;5092111;28;20032;-63
2021/11/09 02:38:05;;;;;;;25.17;8.20;;;;;;;7.48;75.19;100859.81;5093930;28;20071;-63
2021/11/09 02:40:34;;;;;;;15.93;7.70;;;;;;;7.47;74.84;100860.63;5092692;28;20057;-63
2021/11/09 02:43:08;;;;;;;19.48;9.07;;;;;;;7.44;75.19;100853.66;5075598;28;20040;-62
2021/11/09 02:48:46;;;;;;;20.73;8.00;;;;;;;7.40;74.99;100858.59;5082025;28;20048;-63
2021/11/09 02:51:19;;;;;;;21.02;7.63;;;;;;;7.41;74.90;100860.34;5075925;28;20047;-63
2021/11/09 02:53:49;;;;;;;18.73;8.00;;;;;;;7.39;74.79;100855.16;5126703;27;20067;-63
2021/11/09 02:56:37;;;;;;;20.83;8.73;;;;;;;7.39;74.89;100855.16;5075409;28;20365;-64
2021/11/09 03:05:01;;;;;;;22.27;7.97;;;;;;;7.35;74.88;100858.41;5071275;28;20056;-63
2021/11/09 03:07:44;;;;;;;17.55;8.02;;;;;;;7.34;74.97;100856.63;5068712;28;20052;-63
2021/11/09 03:10:26;;;;;;;21.70;8.90;;;;;;;7.32;74.97;100851.44;5093509;28;20047;-63
2021/11/09 03:12:59;;;;;;;24.10;8.30;;;;;;;7.31;74.59;100851.38;5092980;28;20437;-64
2021/11/09 03:15:32;;;;;;;23.58;9.10;;;;;;;7.29;75.17;100859.03;5093431;28;20079;-63
2021/11/09 03:18:06;;;;;;;24.50;8.88;;;;;;;7.29;74.95;100858.16;5075692;28;20105;-63
2021/11/09 03:20:39;;;;;;;;;;;;;;;7.29;74.56;100864.19;5092626;28;20161;-63
2021/11/09 03:45:12;;;;;;;17.85;7.63;;;;;;;7.23;74.80;100879.41;5093042;28;20036;-63
2021/11/09 03:47:40;;;;;;;18.15;7.85;;;;;;;7.20;74.79;100874.13;5077447;28;20047;-62
2021/11/09 03:50:09;;;;;;;26.88;9.00;;;;;;;7.19;74.93;100879.19;5096873;28;20387;-63
2021/11/09 03:52:47;;;;;;;20.88;8.25;;;;;;;7.21;74.57;100881.03;5078711;28;20044;-65
2021/11/09 03:55:20;;;;;;;23.33;9.05;;;;;;;7.20;74.79;100876.69;5078929;28;20105;-62
2021/11/09 03:58:03;;;;;;;17.85;9.88;;;;;;;7.21;74.87;100874.97;5079126;28;20406;-62
2021/11/09 04:00:46;;;;;;;18.40;9.20;;;;;;;7.21;74.90;100877.56;5096619;28;20073;-63
2021/11/09 04:05:43;;;;;;;21.88;10.82;;;;;;;7.20;74.50;100878.38;5096619;28;20463;-62
2021/11/09 04:08:30;;;;;;;24.27;10.07;;;;;;;7.19;74.66;100882.66;5095408;28;20028;-62
2021/11/09 04:11:09;;;;;;;19.77;10.38;;;;;;;7.16;74.59;100875.66;5096680;28;20032;-63
2021/11/09 04:22:19;;;;;;;19.45;9.75;;;;;;;7.12;74.49;100872.88;5096217;28;20036;-63
2021/11/09 04:41:22;;;;;;;14.98;8.73;;;;;;;7.01;74.27;100875.00;5096010;28;20042;-63
2021/11/09 04:49:06;;;;;;;18.30;8.03;;;;;;;6.99;74.71;100880.09;5096151;28;20063;-63
2021/11/09 05:10:24;;;;;;;14.55;7.57;;;;;;;6.92;74.34;100874.59;5095916;28;20047;-62
2021/11/09 05:12:55;;;;;;;18.38;7.10;;;;;;;6.89;74.43;100877.94;5095273;28;20464;-63
2021/11/09 05:15:27;;;;;;;12.23;6.68;;;;;;;6.89;74.52;100884.78;5095362;28;20036;-63
2021/11/09 05:17:57;;;;;;;24.40;8.10;;;;;;;6.91;74.86;100889.19;5077382;28;20043;-63
2021/11/09 05:20:26;;;;;;;19.75;7.97;;;;;;;6.90;74.38;100883.97;5095209;28;20106;-64
2021/11/09 05:22:54;;;;;;;16.00;7.18;;;;;;;6.89;74.18;100888.25;5077054;28;20036;-63
2021/11/09 05:25:19;;;;;;;17.70;7.25;;;;;;;6.90;74.17;100891.69;5093756;28;20040;-62
2021/11/09 05:27:53;;;;;;;18.58;7.80;;;;;;;6.92;74.72;100890.97;5095533;28;20501;-62
2021/11/09 05:30:24;;;;;;;15.48;8.30;;;;;;;6.92;74.62;100892.66;5095089;28;20048;-63
2021/11/09 05:32:59;;;;;;;20.00;8.20;;;;;;;6.90;74.17;100891.69;5095131;28;20035;-63
2021/11/09 05:35:27;;;;;;;17.42;7.65;;;;;;;6.92;74.15;100880.66;5094084;28;20035;-63
2021/11/09 05:37:57;;;;;;;18.23;7.57;;;;;;;6.92;74.22;100884.91;5093629;28;20053;-62
2021/11/09 05:40:31;;;;;;;29.40;9.30;;;;;;;6.90;74.45;100896.84;5093795;28;20036;-62
2021/11/09 05:43:01;;;;;;;19.50;8.38;;;;;;;6.89;74.55;100892.50;5094891;28;20210;-63
2021/11/09 05:45:31;;;;;;;18.33;7.82;;;;;;;6.88;74.37;100906.19;5094571;28;20043;-63
2021/11/09 05:48:00;;;;;;;17.52;7.90;;;;;;;6.86;74.32;100909.59;5094699;28;20047;-63
2021/11/09 05:50:31;;;;;;;16.95;8.35;;;;;;;6.86;74.37;100909.59;5110315;28;20402;-62
2021/11/09 05:53:02;;;;;;;23.08;8.00;;;;;;;6.86;74.16;100908.72;5094624;28;20081;-63
2021/11/09 05:55:28;;;;;;;19.98;8.35;;;;;;;6.85;74.43;100919.84;5094621;28;20438;-62
2021/11/09 05:57:58;;;;;;;17.90;7.88;;;;;;;6.86;74.35;100913.88;5094291;28;20028;-62
2021/11/09 06:00:26;;;;;;;16.38;7.97;;;;;;;6.86;74.49;100919.88;5075891;28;20052;-62
2021/11/09 06:02:52;;;;;;;16.48;6.60;;;;;;;6.88;74.14;100930.28;5094397;28;20047;-62
2021/11/09 06:05:20;;;;;;;16.40;7.68;;;;;;;6.89;74.29;100929.47;5076156;28;20380;-62
2021/11/09 06:07:51;;;;;;;15.90;7.00;;;;;;;6.89;74.38;100926.00;5094228;28;20035;-62
2021/11/09 06:10:19;;;;;;;19.48;7.45;;;;;;;6.91;74.03;100943.31;5126730;27;20032;-62
2021/11/09 06:12:46;;;;;;;22.48;8.05;;;;;;;6.90;74.33;100941.56;5094234;28;20039;-62
2021/11/09 06:15:12;;;;;;;19.73;7.65;;;;;;;6.92;74.38;100946.75;5094218;28;20043;-62
2021/11/09 06:17:43;;;;;;;17.70;6.38;;;;;;;6.90;74.26;100945.81;5094022;28;20040;-62
2021/11/09 06:20:09;;;;;;;18.30;7.18;;;;;;;6.91;74.38;100951.06;5092929;28;20046;-62
2021/11/09 06:22:39;;;;;;;16.77;6.82;;;;;;;6.87;74.32;100949.13;5092689;28;20032;-62
2021/11/09 06:25:08;;;;;;;16.40;7.03;;;;;;;6.88;74.28;100952.59;5075685;28;20048;-62
2021/11/09 06:27:36;;;;;;;15.60;7.22;;;;;;;6.86;74.12;100955.97;5093910;28;20038;-63
2021/11/09 06:30:03;;;;;;;16.70;6.80;;;;;;;6.85;74.13;100954.19;5094127;28;20078;-63
2021/11/09 06:32:37;;;;;;;16.58;6.95;;;;;;;6.85;73.97;100958.50;5110090;27;20119;-63
2021/11/09 06:35:05;;;;;;;17.38;6.82;;;;;;;6.84;74.35;100955.03;5075936;28;20051;-62
2021/11/09 06:37:33;;;;;;;14.30;6.50;;;;;;;6.85;73.88;100961.06;5075709;28;20062;-62
2021/11/09 06:40:03;;;;;;;21.98;9.27;;;;;;;6.84;74.24;100964.44;5075545;28;20503;-62
2021/11/09 06:42:32;;;;;;;20.98;6.72;;;;;;;6.83;73.91;100970.41;5075645;28;20552;-62
2021/11/09 06:45:00;;;;;;;20.83;7.88;;;;;;;6.81;74.04;100972.94;5092501;28;20044;-62
2021/11/09 06:47:32;;;;;;;20.38;6.82;;;;;;;6.82;74.21;100973.81;5075555;28;20042;-62
2021/11/09 06:50:02;;;;;;;18.75;6.78;;;;;;;6.81;74.13;100974.63;5092188;28;20411;-62
2021/11/09 06:52:31;;;;;;;16.33;7.57;;;;;;;6.80;74.26;100971.16;5075324;28;20074;-63
2021/11/09 06:55:03;;;;;;;14.98;6.85;;;;;;;6.78;73.91;100965.06;5075496;28;20032;-63
2021/11/09 06:57:31;;;;;;;15.40;6.13;;;;;;;6.80;74.01;100975.41;5075108;28;20046;-63
2021/11/09 07:00:10;;;;;;;19.75;6.47;;;;;;;6.80;73.79;100975.41;5093342;28;20040;-63
2021/11/09 07:02:38;;;;;;;16.42;6.82;;;;;;;6.78;74.25;100977.03;5075577;28;20028;-63
2021/11/09 07:05:07;;;;;;;17.17;7.55;;;;;;;6.77;74.04;100983.03;5075429;28;20041;-62
2021/11/09 07:07:33;;;;;;;15.27;6.80;;;;;;;6.75;73.88;100982.94;5092041;28;20059;-62
2021/11/09 07:10:05;;;;;;;15.05;5.85;;;;;;;6.74;73.74;100980.31;5093288;28;20040;-63
2021/11/09 07:12:31;;;;;;;20.00;7.78;;;;;;;6.73;73.79;100979.41;5093732;28;20060;-62
2021/11/09 07:15:08;;;;;;;15.48;6.88;;;;;;;6.73;73.73;100983.69;5091935;28;20047;-62
2021/11/09 07:17:39;;;;;;;13.90;6.05;;;;;;;6.72;74.43;100989.66;5092246;28;20078;-62
2021/11/09 07:20:12;;;;;;;15.77;6.68;;;;;;;6.71;74.09;100991.34;5093590;28;20048;-63
2021/11/09 07:22:44;;;;;;;20.77;6.90;;;;;;;6.70;74.03;100981.84;5094913;28;20119;-63
2021/11/09 07:25:19;;;;;;;15.90;7.18;;;;;;;6.67;73.89;100987.75;5079497;28;20079;-62
2021/11/09 07:27:52;;;;;;;21.45;6.35;;;;;;;6.69;73.53;100990.41;5097313;28;20036;-62
2021/11/09 07:30:23;;;;;;;17.98;6.25;;;;;;;6.68;74.11;100994.66;5078951;28;20055;-62
2021/11/09 07:32:48;;;;;;;23.02;8.93;;;;;;;6.68;73.98;100997.25;5079602;28;20047;-63
2021/11/09 07:35:17;;;;;;;19.92;7.05;;;;;;;6.70;74.06;101005.03;5097324;28;20028;-63
2021/11/09 07:37:46;;;;;;;14.55;6.15;;;;;;;6.72;73.91;101010.28;5096197;28;20035;-62
2021/11/09 07:40:16;;;;;;;16.77;7.25;;;;;;;6.71;74.24;101009.38;5097123;28;20051;-62
2021/11/09 07:42:47;;;;;;;12.80;6.80;;;;;;;6.69;73.79;101004.16;5078955;28;20039;-63
2021/11/09 07:45:19;;;;;;;24.70;7.63;;;;;;;6.69;74.15;101016.16;5097381;28;20035;-62
2021/11/09 07:48:37;;;;;;;17.42;5.85;;;;;;;6.69;74.11;101009.31;5096009;28;20056;-62
2021/11/09 07:51:03;;;;;;;14.73;6.43;;;;;;;6.67;73.95;101013.50;5078909;28;20122;-63
2021/11/09 07:53:35;;;;;;;16.25;6.47;;;;;;;6.67;74.18;101012.63;5078695;28;20036;-62
2021/11/09 08:11:44;;;;;;;14.13;6.70;;;;;;;6.66;74.05;101009.16;5096445;28;20040;-62
2021/11/09 08:14:16;;;;;;;19.30;8.15;;;;;;;6.64;74.06;101008.19;5078281;28;20032;-63
2021/11/09 08:16:48;;;;;;;19.20;6.97;;;;;;;6.64;73.56;101003.03;5095010;28;20046;-63
2021/11/09 08:19:16;;;;;;;24.13;7.47;;;;;;;6.64;73.79;101005.63;5095275;28;20142;-63
2021/11/09 08:21:43;;;;;;;17.83;7.75;;;;;;;6.64;74.09;101002.19;5094854;28;20039;-62
2021/11/09 08:24:18;;;;;;;16.55;7.65;;;;;;;6.64;73.95;101007.34;5078267;28;20035;-63
2021/11/09 08:26:46;;;;;;;17.60;7.38;;;;;;;6.64;74.33;101010.78;5095015;28;20043;-62
2021/11/09 08:29:23;;;;;;;27.02;8.27;;;;;;;6.64;74.09;101010.78;5078656;28;20048;-62
2021/11/09 08:31:53;;;;;;;16.35;6.40;;;;;;;6.64;73.82;101010.78;5096152;28;20051;-62
2021/11/09 08:34:26;;;;;;;22.48;6.93;;;;;;;6.66;74.09;101004.00;5095681;28;20529;-62
2021/11/09 08:36:59;;;;;;;19.63;7.45;;;;;;;6.66;74.21;101011.72;5095996;28;20040;-62
2021/11/09 08:39:39;;;;;;;12.88;6.15;;;;;;;6.67;74.41;101008.34;5095237;28;20040;-62
2021/11/09 08:42:27;;;;;;;20.70;7.28;;;;;;;6.69;73.66;101006.72;5096141;28;20036;-62
2021/11/09 08:45:05;;;;;;;20.98;7.07;;;;;;;6.70;74.02;101000.78;5095895;28;20556;-62
2021/11/09 08:47:33;;;;;;;20.25;6.82;;;;;;;6.72;73.99;101000.84;5094194;28;20090;-62
2021/11/09 08:50:04;;;;;;;16.63;7.22;;;;;;;6.73;74.34;101001.72;5094842;28;20039;-63
2021/11/09 08:52:34;;;;;;;16.83;7.57;;;;;;;6.74;73.89;101003.50;5077406;28;20483;-63
2021/11/09 08:58:03;;;;;;;23.77;8.30;;;;;;;6.76;74.35;101009.63;5094517;28;20093;-62
2021/11/09 09:05:57;;;;;;;19.98;7.82;;;;;;;6.77;74.46;100995.91;5095476;28;20032;-63
2021/11/09 09:08:23;;;;;;;22.58;7.38;;;;;;;6.79;74.30;101004.56;5094293;28;20044;-63
2021/11/09 09:10:49;;;;;;;20.65;8.65;;;;;;;6.80;74.03;101001.19;5094479;28;20124;-63
2021/11/09 09:13:14;;;;;;;17.17;7.00;;;;;;;6.81;74.29;100997.81;5078090;28;20047;-63
2021/11/09 09:15:40;;;;;;;22.88;7.20;;;;;;;6.83;74.01;100996.19;5077716;28;20043;-62
2021/11/09 09:18:09;;;;;;;23.30;8.57;;;;;;;6.85;74.33;100999.72;5094084;28;20082;-63
2021/11/09 09:20:44;;;;;;;26.10;8.20;;;;;;;6.86;74.24;101006.63;5095247;28;20040;-62
2021/11/09 09:23:35;;;;;;;15.02;6.50;;;;;;;6.89;73.88;101014.53;5110921;28;20035;-62
2021/11/09 09:57:49;;;;;;;18.33;6.60;;;;;;;7.21;73.89;101025.44;5094187;28;20032;-62
2021/11/09 10:00:15;;;;;;;20.50;6.75;;;;;;;7.25;73.92;101032.47;5092934;28;20498;-63
2021/11/09 10:02:53;;;;;;;17.95;6.72;;;;;;;7.28;74.04;101035.19;5076297;28;20075;-63
2021/11/09 10:05:21;;;;;;;17.38;6.97;;;;;;;7.31;73.99;101030.19;5093351;28;20123;-63
2021/11/09 10:07:55;;;;;;;16.35;5.63;;;;;;;7.34;74.15;101023.41;5110005;28;20040;-63
2021/11/09 10:10:21;;;;;;;19.25;6.03;;;;;;;7.37;74.22;101033.84;5110566;28;20067;-63
2021/11/09 10:13:03;;;;;;;12.13;6.45;;;;;;;7.41;73.98;101034.06;5093149;28;20101;-63
2021/11/09 10:15:38;;;;;;;12.25;5.35;;;;;;;7.40;74.00;101041.72;5092611;28;20040;-63
2021/11/09 10:18:17;;;;;;;18.42;5.90;;;;;;;7.42;74.12;101035.81;5076764;28;20185;-63
2021/11/09 10:20:56;;;;;;;12.32;5.78;;;;;;;7.44;73.88;101023.88;5076213;28;20036;-63
2021/11/09 10:23:27;;;;;;;14.60;4.75;;;;;;;7.46;73.86;101022.25;5109765;28;20043;-63
2021/11/09 10:25:59;;;;;;;14.85;4.78;;;;;;;7.50;73.93;101020.69;5092816;28;20154;-62
2021/11/09 10:28:26;;;;;;;17.88;6.45;;;;;;;7.53;73.96;101023.41;5093068;28;20040;-62
2021/11/09 10:31:01;;;;;;;17.33;5.32;;;;;;;7.54;73.71;101024.28;5075869;28;20031;-63
2021/11/09 10:33:40;;;;;;;14.45;5.88;;;;;;;7.57;73.71;101020.13;5076060;28;20039;-62
2021/11/09 10:36:29;;;;;;;12.10;5.28;;;;;;;7.58;74.10;101021.91;5092761;28;20038;-63
2021/11/09 10:39:18;;;;;;;15.38;4.57;;;;;;;7.61;73.72;101018.59;5093715;28;20060;-63
2021/11/09 10:42:12;;;;;;;12.57;5.22;;;;;;;7.64;74.07;101023.84;5109611;28;20047;-62
2021/11/09 10:44:42;;;;;;;18.25;5.43;;;;;;;7.66;74.05;101022.22;5092630;28;20043;-63
2021/11/09 10:47:34;;;;;;;12.48;5.38;;;;;;;7.68;73.73;101020.59;5093779;28;20036;-63
2021/11/09 10:50:10;;;;;;;12.32;5.18;;;;;;;7.70;73.98;101012.94;5089150;28;20079;-63
2021/11/09 10:52:39;;;;;;;13.80;5.55;;;;;;;7.73;73.88;101016.53;5092881;28;20093;-63
2021/11/09 11:06:21;;;;;;;24.10;6.25;;;;;;;7.85;73.28;101016.19;5092031;28;20502;-63
2021/11/09 11:08:50;;;;;;;12.07;5.35;;;;;;;7.88;73.43;101011.13;5093803;28;20428;-62
2021/11/09 11:11:27;;;;;;;19.95;5.10;;;;;;;7.90;73.83;101013.78;5092181;28;20025;-63
2021/11/09 11:13:56;;;;;;;20.10;5.40;;;;;;;7.91;73.33;101006.09;5093403;28;20043;-63
2021/11/09 11:16:27;;;;;;;20.45;5.05;;;;;;;7.95;73.20;101001.06;5092171;28;20115;-63
2021/11/09 11:18:56;;;;;;;11.35;4.22;;;;;;;7.95;73.45;100994.19;5093642;28;20044;-63
2021/11/09 11:21:26;;;;;;;15.00;5.13;;;;;;;7.97;73.23;100997.72;5092885;28;20504;-63
2021/11/09 11:23:55;;;;;;;12.05;5.00;;;;;;;7.99;73.22;100992.66;5108899;28;20082;-63
2021/11/09 11:26:22;;;;;;;20.70;6.53;;;;;;;8.00;73.26;100999.56;5093306;28;20046;-63
2021/11/09 11:28:53;;;;;;;11.57;4.40;;;;;;;8.02;73.03;100998.81;5092156;28;20043;-64
2021/11/09 11:31:20;;;;;;;13.02;5.88;;;;;;;8.03;73.37;101008.31;5092386;28;20032;-63
2021/11/09 11:33:46;;;;;;;12.38;5.15;;;;;;;8.04;73.23;100997.19;5075211;28;20487;-63
2021/11/09 11:36:20;;;;;;;15.02;4.55;;;;;;;8.04;73.17;100997.19;5074939;28;20495;-64
2021/11/09 11:38:54;;;;;;;16.77;6.35;;;;;;;8.05;73.40;100987.72;5093149;28;20090;-62
2021/11/09 11:41:35;;;;;;;10.80;4.22;;;;;;;8.05;73.11;100977.38;5074957;28;20395;-63
2021/11/09 11:44:06;;;;;;;11.50;4.43;;;;;;;8.07;73.33;100983.50;5092133;28;20123;-63
2021/11/09 11:46:31;;;;;;;11.00;5.00;;;;;;;8.07;73.37;100979.25;5092081;28;20044;-62
2021/11/09 11:48:59;;;;;;;14.40;5.55;;;;;;;8.08;73.20;100982.69;5075212;28;20051;-63
2021/11/09 11:51:30;;;;;;;12.77;4.72;;;;;;;8.10;73.19;100973.31;5074689;28;20059;-63
2021/11/09 11:54:01;;;;;;;14.02;4.63;;;;;;;8.11;73.07;100966.44;5093174;28;20040;-63
2021/11/09 11:56:43;;;;;;;16.75;5.07;;;;;;;8.12;73.23;100965.59;5074840;28;20540;-62
2021/11/09 11:59:24;;;;;;;13.40;5.00;;;;;;;8.12;73.03;100963.94;5075165;28;20051;-62
2021/11/09 12:01:56;;;;;;;11.02;4.88;;;;;;;8.14;73.21;100957.13;5091851;28;20367;-62
2021/11/09 12:04:54;;;;;;;12.98;4.55;;;;;;;8.14;72.93;100951.06;5074746;28;20055;-63
2021/11/09 12:07:57;;;;;;;10.55;4.55;;;;;;;8.16;73.05;100944.25;5091664;28;20043;-63
2021/11/09 12:10:34;;;;;;;15.95;4.15;;;;;;;8.16;72.97;100942.59;5096630;28;20479;-62
2021/11/09 12:13:06;;;;;;;11.20;4.40;;;;;;;8.16;72.82;100934.84;5095358;28;20050;-63
2021/11/09 12:15:57;;;;;;;11.23;4.60;;;;;;;8.18;72.95;100942.63;5096328;28;20557;-63
2021/11/09 12:18:32;;;;;;;11.35;3.88;;;;;;;8.18;73.08;100943.50;5078272;28;20035;-63
2021/11/09 12:21:21;;;;;;;12.95;5.65;;;;;;;8.19;72.73;100931.47;5096142;28;20410;-63
2021/11/09 12:24:23;;;;;;;13.50;4.72;;;;;;;8.20;72.99;100922.91;5078481;28;20043;-63
2021/11/09 12:27:00;;;;;;;8.95;4.28;;;;;;;8.21;72.82;100917.81;5053578;28;20033;-62
2021/11/09 12:29:35;;;;;;;9.43;4.50;;;;;;;8.22;72.69;100927.31;5073086;28;20054;-62
2021/11/09 12:32:36;;;;;;;10.00;4.38;;;;;;;8.23;72.70;100916.16;5096162;28;20036;-63
2021/11/09 12:35:10;;;;;;;11.15;4.32;;;;;;;8.25;72.90;100915.34;5094906;28;20090;-63
2021/11/09 12:37:43;;;;;;;19.40;5.35;;;;;;;8.25;72.71;100915.34;5095927;28;20036;-63
2021/11/09 12:40:38;;;;;;;9.75;4.82;;;;;;;8.26;72.66;100914.53;5095274;28;20039;-63
2021/11/09 12:43:08;;;;;;;15.43;5.13;;;;;;;8.26;72.57;100907.66;5086342;28;20067;-63
2021/11/09 12:45:38;;;;;;;14.15;4.93;;;;;;;8.27;72.64;100905.97;5077917;28;20047;-62
2021/11/09 12:48:09;;;;;;;14.00;5.50;;;;;;;8.28;72.53;100903.44;5077565;28;20043;-63
2021/11/09 12:50:36;;;;;;;11.65;4.82;;;;;;;8.28;72.69;100913.75;5094993;28;20048;-63
2021/11/09 12:53:14;;;;;;;9.52;3.75;;;;;;;8.29;72.49;100904.31;5094943;28;20036;-63
2021/11/09 12:55:43;;;;;;;14.43;4.78;;;;;;;8.29;72.48;100901.75;5095806;28;20434;-62
2021/11/09 12:58:25;;;;;;;7.45;4.13;;;;;;;8.29;73.07;100894.00;5094573;28;20082;-62
2021/11/09 13:04:12;;;;;;;7.63;3.60;;;;;;;8.29;72.49;100899.16;5095200;28;20070;-62
2021/11/09 13:10:06;;;;;;;12.88;3.95;;;;;;;8.29;72.28;100899.16;5095943;28;20052;-62
2021/11/09 13:12:33;;;;;;;8.52;3.55;;;;;;;8.28;72.41;100890.50;5090597;28;20075;-62
2021/11/09 13:15:08;;;;;;;13.63;4.25;;;;;;;8.28;72.46;100893.09;5110923;28;20059;-63
2021/11/09 13:17:41;;;;;;;9.32;4.47;;;;;;;8.29;72.35;100889.69;5094478;28;20036;-64
2021/11/09 13:23:15;;;;;;;11.75;3.95;;;;;;;8.29;72.33;100884.53;5095321;28;20088;-62
2021/11/09 13:26:07;;;;;;;11.52;4.15;;;;;;;8.29;72.02;100889.69;5093485;28;20487;-63
2021/11/09 13:28:46;;;;;;;10.45;4.72;;;;;;;8.30;72.30;100888.00;5077258;28;20036;-63
2021/11/09 13:31:32;;;;;;;20.27;5.28;;;;;;;8.29;72.24;100876.78;5093693;28;20036;-63
2021/11/09 13:34:09;;;;;;;9.68;4.90;;;;;;;8.29;72.38;100875.91;5094052;28;20032;-63
2021/11/09 13:36:56;;;;;;;7.25;4.25;;;;;;;8.28;72.66;100879.31;5093739;28;20088;-62
2021/11/09 13:39:29;;;;;;;13.65;4.55;;;;;;;8.28;72.40;100877.59;5076618;28;20502;-63
2021/11/09 13:42:07;;;;;;;16.88;5.38;;;;;;;8.28;72.33;100877.59;5077164;28;20131;-63
2021/11/09 13:44:38;;;;;;;7.28;3.80;;;;;;;8.29;72.65;100881.94;5093375;28;20546;-62
2021/11/09 13:47:12;;;;;;;8.35;3.97;;;;;;;8.28;72.47;100872.44;5076505;28;20040;-63
2021/11/09 13:50:02;;;;;;;9.85;4.35;;;;;;;8.28;72.15;100869.84;5076940;28;20074;-63
2021/11/09 13:52:40;;;;;;;13.82;4.03;;;;;;;8.27;72.26;100877.56;5076608;28;20472;-63
2021/11/09 13:55:09;;;;;;;9.75;3.95;;;;;;;8.28;72.40;100872.44;5076540;28;20024;-62
2021/11/09 13:57:49;;;;;;;14.18;4.25;;;;;;;8.27;72.18;100865.50;5077126;28;20043;-63
2021/11/09 14:00:35;;;;;;;9.07;4.30;;;;;;;8.26;72.17;100870.63;5076159;28;20127;-62
2021/11/09 14:06:04;;;;;;;10.35;4.50;;;;;;;8.25;72.34;100859.44;5094602;28;20092;-63
2021/11/09 14:14:46;;;;;;;10.30;4.13;;;;;;;8.24;72.30;100857.66;5093360;28;20036;-63
2021/11/09 14:17:36;;;;;;;13.40;5.43;;;;;;;8.23;72.58;100854.19;5076123;28;20066;-62
2021/11/09 14:20:21;;;;;;;7.55;4.03;;;;;;;8.24;72.45;100852.50;5092544;28;20044;-63
2021/11/09 14:23:08;;;;;;;12.43;5.10;;;;;;;8.22;72.35;100849.84;5076329;28;20040;-62
2021/11/09 14:25:47;;;;;;;8.57;3.80;;;;;;;8.24;72.45;100849.91;5093189;28;20032;-63
2021/11/09 14:28:40;;;;;;;8.45;4.35;;;;;;;8.21;72.68;100850.66;5093872;28;20036;-63
2021/11/09 14:31:20;;;;;;;11.27;4.40;;;;;;;8.21;72.44;100850.66;5092758;28;20041;-63
2021/11/09 14:33:53;;;;;;;8.57;4.43;;;;;;;8.21;72.73;100853.25;5093057;28;20149;-62
2021/11/09 14:36:35;;;;;;;14.15;4.88;;;;;;;8.21;72.54;100853.25;5075588;28;20082;-63
2021/11/09 14:39:28;;;;;;;7.93;3.63;;;;;;;8.22;72.44;100848.97;5094405;28;20032;-63
2021/11/09 14:42:26;;;;;;;9.82;5.15;;;;;;;8.21;72.62;100848.06;5092945;28;20040;-63